createdAt,value
2022-10-10T00:01:19.154Z,3.73
2022-10-10T00:03:46.601Z,4.23
2022-10-10T00:06:14.969Z,3.53
2022-10-10T00:08:42.986Z,3.40
2022-10-10T00:11:10.933Z,4.10
2022-10-10T00:13:38.094Z,3.73
2022-10-10T00:16:05.182Z,3.43
2022-10-10T00:18:32.935Z,3.70
2022-10-10T00:20:59.832Z,4.00
2022-10-10T00:23:26.632Z,4.10
2022-10-10T00:25:53.707Z,4.03
2022-10-10T00:28:21.967Z,3.93
2022-10-10T00:30:48.760Z,4.40
2022-10-10T00:33:15.617Z,4.03
2022-10-10T00:35:42.617Z,4.00
2022-10-10T00:38:10.480Z,4.00
2022-10-10T00:40:46.193Z,3.77
2022-10-10T00:43:13.774Z,5.20
2022-10-10T00:45:42.631Z,4.00
2022-10-10T00:48:31.551Z,4.03
2022-10-10T00:51:09.327Z,3.80
2022-10-10T00:54:04.390Z,3.87
2022-10-10T00:56:35.843Z,3.60
2022-10-10T00:59:07.298Z,4.10
2022-10-10T01:01:34.368Z,4.03
2022-10-10T01:04:02.800Z,4.63
2022-10-10T01:06:30.330Z,4.27
2022-10-10T01:08:57.466Z,3.90
2022-10-10T01:11:27.013Z,4.10
2022-10-10T01:14:12.251Z,4.33
2022-10-10T01:17:09.657Z,4.20
2022-10-10T01:20:02.556Z,4.43
2022-10-10T01:22:54.109Z,3.73
2022-10-10T01:25:32.611Z,3.90
2022-10-10T01:28:03.101Z,3.83
2022-10-10T01:30:31.039Z,4.53
2022-10-10T01:33:17.223Z,4.40
2022-10-10T01:36:08.717Z,4.27
2022-10-10T01:38:54.235Z,4.60
2022-10-10T01:41:26.905Z,5.40
2022-10-10T01:43:55.795Z,4.57
2022-10-10T01:46:23.234Z,4.53
2022-10-10T01:48:53.610Z,4.30
2022-10-10T01:51:45.028Z,4.50
2022-10-10T01:54:34.731Z,4.47
2022-10-10T01:57:20.543Z,4.97
2022-10-10T02:00:02.185Z,4.73
2022-10-10T02:02:43.932Z,4.00
2022-10-10T02:05:32.508Z,4.27
2022-10-10T02:08:21.652Z,4.37
2022-10-10T02:10:55.549Z,3.90
2022-10-10T02:13:29.958Z,4.40
2022-10-10T02:15:59.646Z,3.97
2022-10-10T02:18:29.273Z,4.03
2022-10-10T02:20:56.356Z,4.30
2022-10-10T02:23:23.756Z,4.20
2022-10-10T02:25:56.433Z,4.70
2022-10-10T02:28:46.593Z,4.00
2022-10-10T02:31:19.463Z,4.20
2022-10-10T02:33:56.622Z,4.47
2022-10-10T02:36:25.049Z,4.40
2022-10-10T02:38:53.655Z,4.83
2022-10-10T02:41:22.074Z,4.33
2022-10-10T02:43:50.973Z,3.83
2022-10-10T02:46:17.992Z,4.30
2022-10-10T02:48:45.209Z,4.27
2022-10-10T02:51:15.811Z,4.33
2022-10-10T02:53:42.663Z,4.07
2022-10-10T02:56:09.413Z,4.17
2022-10-10T02:58:36.278Z,4.63
2022-10-10T03:01:03.465Z,4.13
2022-10-10T03:03:30.399Z,4.50
2022-10-10T03:05:57.203Z,3.97
2022-10-10T03:08:24.024Z,3.83
2022-10-10T03:11:02.249Z,3.67
2022-10-10T03:13:30.818Z,4.00
2022-10-10T03:15:57.612Z,3.87
2022-10-10T03:18:24.739Z,3.47
2022-10-10T03:20:55.988Z,3.67
2022-10-10T03:23:25.947Z,4.30
2022-10-10T03:25:52.887Z,3.70
2022-10-10T03:28:20.372Z,3.73
2022-10-10T03:30:47.978Z,3.97
2022-10-10T03:33:14.854Z,3.53
2022-10-10T03:35:41.655Z,4.20
2022-10-10T03:38:08.778Z,3.60
2022-10-10T03:40:40.965Z,3.80
2022-10-10T03:43:09.491Z,3.60
2022-10-10T03:45:36.749Z,3.97
2022-10-10T03:48:05.408Z,3.93
2022-10-10T03:50:32.209Z,3.93
2022-10-10T03:52:58.957Z,3.10
2022-10-10T03:55:27.172Z,3.30
2022-10-10T03:57:54.032Z,3.40
2022-10-10T04:00:22.635Z,3.43
2022-10-10T04:02:49.667Z,3.40
2022-10-10T04:05:16.955Z,4.10
2022-10-10T04:07:44.972Z,3.60
2022-10-10T04:10:11.730Z,3.60
2022-10-10T04:12:38.579Z,3.87
2022-10-10T04:15:06.053Z,3.93
2022-10-10T04:17:33.066Z,3.53
2022-10-10T04:20:00.020Z,3.47
2022-10-10T04:22:26.718Z,3.37
2022-10-10T04:24:53.559Z,3.30
2022-10-10T04:27:20.327Z,3.37
2022-10-10T04:29:48.199Z,3.70
2022-10-10T04:32:15.014Z,3.60
2022-10-10T04:34:41.713Z,3.27
2022-10-10T04:37:08.505Z,3.90
2022-10-10T04:39:35.238Z,3.87
2022-10-10T04:42:02.195Z,3.80
2022-10-10T04:44:29.124Z,3.67
2022-10-10T04:46:56.014Z,3.93
2022-10-10T04:49:23.210Z,4.23
2022-10-10T04:51:50.099Z,3.60
2022-10-10T04:54:16.901Z,4.10
2022-10-10T04:56:43.792Z,3.87
2022-10-10T04:59:10.797Z,3.90
2022-10-10T05:01:37.786Z,4.10
2022-10-10T05:04:05.086Z,3.73
2022-10-10T05:06:32.267Z,3.77
2022-10-10T05:08:59.294Z,4.33
2022-10-10T05:11:26.198Z,4.10
2022-10-10T05:13:53.072Z,4.67
2022-10-10T05:16:19.904Z,4.03
2022-10-10T05:18:46.873Z,4.73
2022-10-10T05:21:13.607Z,4.17
2022-10-10T05:23:41.856Z,4.20
2022-10-10T05:26:10.505Z,4.03
2022-10-10T05:28:37.673Z,4.13
2022-10-10T05:31:05.597Z,4.40
2022-10-10T05:33:34.065Z,5.13
2022-10-10T05:36:06.223Z,4.10
2022-10-10T05:38:34.037Z,4.00
2022-10-10T05:41:00.992Z,4.00
2022-10-10T05:43:27.781Z,4.30
2022-10-10T05:45:55.074Z,3.93
2022-10-10T05:48:22.163Z,4.10
2022-10-10T05:50:51.687Z,4.70
2022-10-10T05:53:18.880Z,4.10
2022-10-10T05:55:45.695Z,4.40
2022-10-10T05:58:15.499Z,4.20
2022-10-10T06:00:43.972Z,4.33
2022-10-10T06:03:14.430Z,4.17
2022-10-10T06:05:41.364Z,4.23
2022-10-10T06:08:11.839Z,4.10
2022-10-10T06:10:42.475Z,4.17
2022-10-10T06:13:10.585Z,3.93
2022-10-10T06:15:37.678Z,3.80
2022-10-10T06:18:05.673Z,4.13
2022-10-10T06:20:35.709Z,4.00
2022-10-10T06:23:03.973Z,4.40
2022-10-10T06:25:41.275Z,4.00
2022-10-10T06:28:09.271Z,4.43
2022-10-10T06:30:43.789Z,3.80
2022-10-10T06:33:12.121Z,4.50
2022-10-10T06:35:43.761Z,4.47
2022-10-10T06:38:11.024Z,4.10
2022-10-10T06:40:38.140Z,4.23
2022-10-10T06:43:09.034Z,4.87
2022-10-10T06:45:37.036Z,4.73
2022-10-10T06:48:04.270Z,4.20
2022-10-10T06:50:31.202Z,4.43
2022-10-10T06:52:57.996Z,4.63
2022-10-10T06:55:24.864Z,4.13
2022-10-10T06:57:51.736Z,4.73
2022-10-10T07:00:18.613Z,4.70
2022-10-10T07:02:45.463Z,4.70
2022-10-10T07:05:13.967Z,4.90
2022-10-10T07:07:40.789Z,4.33
2022-10-10T07:10:10.216Z,4.60
2022-10-10T07:12:44.205Z,5.53
2022-10-10T07:15:12.071Z,5.40
2022-10-10T07:17:39.071Z,5.27
2022-10-10T07:20:06.825Z,5.27
2022-10-10T07:22:33.970Z,5.60
2022-10-10T07:25:00.687Z,4.77
2022-10-10T07:27:27.502Z,4.73
2022-10-10T07:29:54.284Z,5.23
2022-10-10T07:32:21.083Z,5.33
2022-10-10T07:34:47.802Z,5.47
2022-10-10T07:37:14.543Z,4.80
2022-10-10T07:39:41.538Z,4.57
2022-10-10T07:42:08.233Z,4.67
2022-10-10T07:44:35.172Z,5.30
2022-10-10T07:47:01.996Z,4.83
2022-10-10T07:49:28.888Z,5.13
2022-10-10T07:51:58.888Z,4.63
2022-10-10T07:54:27.510Z,4.20
2022-10-10T07:56:55.489Z,5.00
2022-10-10T07:59:22.915Z,4.97
2022-10-10T08:01:50.006Z,4.60
2022-10-10T08:04:18.143Z,4.83
2022-10-10T08:06:44.833Z,4.30
2022-10-10T08:09:11.800Z,4.27
2022-10-10T08:11:38.525Z,4.37
2022-10-10T08:14:05.536Z,4.83
2022-10-10T08:16:32.431Z,4.00
2022-10-10T08:18:59.164Z,4.10
2022-10-10T08:21:25.977Z,4.90
2022-10-10T08:23:52.712Z,4.63
2022-10-10T08:26:20.146Z,4.63
2022-10-10T08:28:48.623Z,4.70
2022-10-10T08:31:18.437Z,4.40
2022-10-10T08:33:46.207Z,4.43
2022-10-10T08:36:15.828Z,6.00
2022-10-10T08:38:43.483Z,4.33
2022-10-10T08:41:44.113Z,4.43
2022-10-10T08:44:23.692Z,4.53
2022-10-10T08:47:18.144Z,4.53
2022-10-10T08:50:06.144Z,4.10
2022-10-10T08:52:55.793Z,4.87
2022-10-10T08:55:43.909Z,4.40
2022-10-10T08:58:29.836Z,4.63
2022-10-10T09:01:12.826Z,4.00
2022-10-10T09:03:46.428Z,3.50
2022-10-10T09:06:17.474Z,4.20
2022-10-10T09:09:08.447Z,4.13
2022-10-10T09:11:53.511Z,4.37
2022-10-10T09:15:02.569Z,3.83
2022-10-10T09:17:39.091Z,3.93
2022-10-10T09:20:30.693Z,3.83
2022-10-10T09:23:21.177Z,4.27
2022-10-10T09:26:16.592Z,4.53
2022-10-10T09:29:06.362Z,3.70
2022-10-10T09:31:46.140Z,3.57
2022-10-10T09:34:20.988Z,3.60
2022-10-10T09:36:48.393Z,3.87
2022-10-10T09:39:38.877Z,4.47
2022-10-10T09:42:14.205Z,4.30
2022-10-10T09:44:42.802Z,4.47
2022-10-10T09:47:15.804Z,4.57
2022-10-10T09:49:43.985Z,4.17
2022-10-10T09:52:31.334Z,4.47
2022-10-10T09:55:22.438Z,4.53
2022-10-10T09:57:51.740Z,4.27
2022-10-10T10:00:21.308Z,3.93
2022-10-10T10:02:49.364Z,3.93
2022-10-10T10:05:27.565Z,5.17
2022-10-10T10:07:54.423Z,5.57
2022-10-10T10:10:24.480Z,3.93
2022-10-10T10:12:52.454Z,4.60
2022-10-10T10:15:25.079Z,4.03
2022-10-10T10:18:13.711Z,4.43
2022-10-10T10:20:45.776Z,5.00
2022-10-10T10:23:31.206Z,4.50
2022-10-10T10:26:06.605Z,4.10
2022-10-10T10:28:43.919Z,4.47
2022-10-10T10:31:44.573Z,4.40
2022-10-10T10:34:31.058Z,4.63
2022-10-10T10:37:16.748Z,4.83
2022-10-10T10:39:56.080Z,5.10
2022-10-10T10:42:39.755Z,4.90
2022-10-10T10:45:14.912Z,4.00
2022-10-10T10:47:58.950Z,4.17
2022-10-10T10:50:31.491Z,3.60
2022-10-10T10:53:35.336Z,4.00
2022-10-10T11:02:57.538Z,4.43
2022-10-10T11:05:43.401Z,3.97
2022-10-10T11:08:26.467Z,4.10
2022-10-10T11:11:25.184Z,3.20
2022-10-10T11:14:27.248Z,3.97
2022-10-10T11:17:07.454Z,3.77
2022-10-10T11:20:06.752Z,3.50
2022-10-10T11:22:46.406Z,3.27
2022-10-10T11:25:25.819Z,3.73
2022-10-10T11:28:03.095Z,3.40
2022-10-10T11:30:36.042Z,3.57
2022-10-10T11:33:13.764Z,3.27
2022-10-10T11:35:54.094Z,2.70
2022-10-10T11:38:25.181Z,3.50
2022-10-10T11:41:15.292Z,2.70
2022-10-10T11:43:47.822Z,2.83
2022-10-10T11:46:39.622Z,3.13
2022-10-10T11:49:11.581Z,3.40
2022-10-10T11:52:21.557Z,2.83
2022-10-10T11:55:10.548Z,3.03
2022-10-10T11:57:55.068Z,3.30
2022-10-10T12:00:21.919Z,3.73
2022-10-10T12:02:49.047Z,3.90
2022-10-10T12:05:23.416Z,3.30
2022-10-10T12:08:34.337Z,3.40
2022-10-10T12:11:05.995Z,4.13
2022-10-10T12:14:08.491Z,3.47
2022-10-10T12:16:37.759Z,3.33
2022-10-10T12:19:23.176Z,3.50
2022-10-10T12:22:02.236Z,3.63
2022-10-10T12:24:54.209Z,3.20
2022-10-10T12:27:41.605Z,3.40
2022-10-10T12:30:08.311Z,4.13
2022-10-10T12:32:41.492Z,4.13
2022-10-10T12:35:37.219Z,3.90
2022-10-10T12:38:20.617Z,3.77
2022-10-10T12:41:05.612Z,3.10
2022-10-10T12:43:42.434Z,3.53
2022-10-10T12:46:30.501Z,3.43
2022-10-10T12:49:19.152Z,4.10
2022-10-10T12:52:21.654Z,3.70
2022-10-10T12:54:50.007Z,3.60
2022-10-10T12:57:47.274Z,3.47
2022-10-10T13:00:23.463Z,3.90
2022-10-10T13:02:55.205Z,3.63
2022-10-10T13:05:29.075Z,4.20
2022-10-10T13:08:00.975Z,3.73
2022-10-10T13:10:31.016Z,3.60
2022-10-10T13:13:03.104Z,3.43
2022-10-10T13:15:31.366Z,3.90
2022-10-10T13:17:58.232Z,3.87
2022-10-10T13:20:39.774Z,3.57
2022-10-10T13:23:12.019Z,3.40
2022-10-10T13:25:40.390Z,3.57
2022-10-10T13:28:18.787Z,3.63
2022-10-10T13:30:46.279Z,3.40
2022-10-10T13:33:22.446Z,3.17
2022-10-10T13:35:50.978Z,3.63
2022-10-10T13:38:23.216Z,3.53
2022-10-10T13:40:50.235Z,3.77
2022-10-10T13:43:19.334Z,4.23
2022-10-10T13:45:56.911Z,3.77
2022-10-10T13:48:35.479Z,3.40
2022-10-10T13:51:04.715Z,4.10
2022-10-10T13:53:34.359Z,3.47
2022-10-10T13:56:11.529Z,3.97
2022-10-10T13:59:01.722Z,3.43
2022-10-10T14:01:39.542Z,2.93
2022-10-10T14:04:44.387Z,3.10
2022-10-10T14:07:16.540Z,2.33
2022-10-10T14:10:10.610Z,1.97
2022-10-10T14:12:44.060Z,2.60
2022-10-10T14:15:31.087Z,2.30
2022-10-10T14:17:59.428Z,2.60
2022-10-10T14:20:27.644Z,3.40
2022-10-10T14:22:54.413Z,2.30
2022-10-10T14:25:21.255Z,2.73
2022-10-10T14:27:48.105Z,2.80
2022-10-10T14:30:15.252Z,2.30
2022-10-10T14:32:42.305Z,2.33
2022-10-10T14:35:12.009Z,2.13
2022-10-10T14:37:39.016Z,2.27
2022-10-10T14:40:33.088Z,1.00
2022-10-10T14:43:00.188Z,0.60
2022-10-10T14:45:26.939Z,0.67
2022-10-10T14:47:53.865Z,0.97
2022-10-10T14:50:27.319Z,0.40
2022-10-10T14:52:54.142Z,0.30
2022-10-10T14:55:20.915Z,0.50
2022-10-10T14:57:47.749Z,0.30
2022-10-10T15:00:17.941Z,0.70
2022-10-10T15:02:45.895Z,2.00
2022-10-10T15:05:13.550Z,0.87
2022-10-10T15:07:41.167Z,0.63
2022-10-10T15:10:33.110Z,0.90
2022-10-10T15:12:59.748Z,0.90
2022-10-10T15:15:26.587Z,0.70
2022-10-10T15:17:54.407Z,0.77
2022-10-10T15:20:25.613Z,1.03
2022-10-10T15:22:53.759Z,0.93
2022-10-10T15:25:21.887Z,1.73
2022-10-10T15:27:48.725Z,0.93
2022-10-10T15:30:15.737Z,1.30
2022-10-10T15:32:42.844Z,1.03
2022-10-10T15:35:17.309Z,1.30
2022-10-10T15:37:44.710Z,1.10
2022-10-10T15:40:12.870Z,1.17
2022-10-10T15:42:39.912Z,1.30
2022-10-10T15:45:07.202Z,1.17
2022-10-10T15:47:34.256Z,1.63
2022-10-10T15:50:01.342Z,1.53
2022-10-10T15:52:28.091Z,1.10
2022-10-10T15:54:55.598Z,1.43
2022-10-10T15:57:23.165Z,1.30
2022-10-10T15:59:51.403Z,1.07
2022-10-10T16:02:18.561Z,1.37
2022-10-10T16:04:45.890Z,1.83
2022-10-10T16:07:28.260Z,1.33
2022-10-10T16:09:57.832Z,1.50
2022-10-10T16:12:24.688Z,1.70
2022-10-10T16:14:51.453Z,1.30
2022-10-10T16:17:22.872Z,1.60
2022-10-10T16:19:50.391Z,1.60
2022-10-10T16:22:17.125Z,1.63
2022-10-10T16:24:53.919Z,2.03
2022-10-10T16:27:32.340Z,1.57
2022-10-10T16:29:59.332Z,1.63
2022-10-10T16:32:26.258Z,1.80
2022-10-10T16:34:53.011Z,1.73
2022-10-10T16:37:19.966Z,1.57
2022-10-10T16:39:46.796Z,1.80
2022-10-10T16:42:13.535Z,1.90
2022-10-10T16:44:40.373Z,1.73
2022-10-10T16:47:08.516Z,1.90
2022-10-10T16:49:35.287Z,2.00
2022-10-10T16:52:02.311Z,2.03
2022-10-10T16:54:29.067Z,2.70
2022-10-10T16:56:55.831Z,2.10
2022-10-10T16:59:22.655Z,2.13
2022-10-10T17:01:49.432Z,1.97
2022-10-10T17:04:16.198Z,1.80
2022-10-10T17:06:43.305Z,2.93
2022-10-10T17:09:11.572Z,2.07
2022-10-10T17:11:39.695Z,2.43
2022-10-10T17:14:06.741Z,2.40
2022-10-10T17:17:06.935Z,2.97
2022-10-10T17:19:21.488Z,2.77
2022-10-10T17:21:48.367Z,2.60
2022-10-10T17:24:16.442Z,2.10
2022-10-10T17:26:43.190Z,2.00
2022-10-10T17:29:10.197Z,2.60
2022-10-10T17:31:37.132Z,1.50
2022-10-10T17:34:03.955Z,2.13
2022-10-10T17:36:30.891Z,1.80
2022-10-10T17:39:00.389Z,1.97
2022-10-10T17:41:28.624Z,1.80
2022-10-10T17:43:55.651Z,2.30
2022-10-10T17:46:34.675Z,2.20
2022-10-10T17:49:02.341Z,1.80
2022-10-10T17:51:29.625Z,2.03
2022-10-10T17:53:59.381Z,2.53
2022-10-10T17:56:26.140Z,2.40
2022-10-10T17:58:53.323Z,4.87
2022-10-10T18:01:21.162Z,3.30
2022-10-10T18:03:48.657Z,2.90
2022-10-10T18:06:20.434Z,3.33
2022-10-10T18:08:48.680Z,3.53
2022-10-10T18:11:21.673Z,2.10
2022-10-10T18:13:48.551Z,3.07
2022-10-10T18:16:17.407Z,3.87
2022-10-10T18:18:50.683Z,3.23
2022-10-10T18:21:20.061Z,3.03
2022-10-10T18:23:47.120Z,1.93
2022-10-10T18:26:19.273Z,2.50
2022-10-10T18:28:49.578Z,1.90
2022-10-10T18:31:21.893Z,2.93
2022-10-10T18:33:49.021Z,4.47
2022-10-10T18:36:18.634Z,3.40
2022-10-10T18:38:46.280Z,2.70
2022-10-10T18:41:35.034Z,2.53
2022-10-10T18:44:16.591Z,2.47
2022-10-10T18:46:44.457Z,2.17
2022-10-10T18:49:13.618Z,3.13
2022-10-10T18:51:43.119Z,2.70
2022-10-10T18:54:13.537Z,2.60
2022-10-10T18:56:41.548Z,2.20
2022-10-10T18:59:12.583Z,2.40
2022-10-10T19:01:40.257Z,2.27
2022-10-10T19:04:12.293Z,3.17
2022-10-10T19:06:40.841Z,2.83
2022-10-10T19:09:11.098Z,2.63
2022-10-10T19:11:40.651Z,2.53
2022-10-10T19:14:13.774Z,2.60
2022-10-10T19:16:42.018Z,2.57
2022-10-10T19:19:11.018Z,2.33
2022-10-10T19:21:38.638Z,2.67
2022-10-10T19:24:07.740Z,2.43
2022-10-10T19:26:35.853Z,2.90
2022-10-10T19:29:07.036Z,2.53
2022-10-10T19:31:35.608Z,2.77
2022-10-10T19:34:02.400Z,4.07
2022-10-10T19:36:29.316Z,3.00
2022-10-10T19:39:00.032Z,2.63
2022-10-10T19:41:27.157Z,2.83
2022-10-10T19:43:54.531Z,2.60
2022-10-10T19:46:24.701Z,2.60
2022-10-10T19:48:54.668Z,2.13
2022-10-10T19:51:21.410Z,3.37
2022-10-10T19:53:48.244Z,3.00
2022-10-10T19:56:24.576Z,2.27
2022-10-10T19:58:53.758Z,2.60
2022-10-10T20:01:26.857Z,2.40
2022-10-10T20:03:56.195Z,2.83
2022-10-10T20:06:23.037Z,2.70
2022-10-10T20:08:50.291Z,2.70
2022-10-10T20:11:21.245Z,2.70
2022-10-10T20:13:52.113Z,3.37
2022-10-10T20:16:19.087Z,2.67
2022-10-10T20:18:45.878Z,3.00
2022-10-10T20:21:19.256Z,2.97
2022-10-10T20:23:47.970Z,2.47
2022-10-10T20:26:18.605Z,3.60
2022-10-10T20:28:46.591Z,2.73
2022-10-10T20:31:16.137Z,3.07
2022-10-10T20:33:44.029Z,3.57
2022-10-10T20:36:11.333Z,3.27
2022-10-10T20:38:39.503Z,3.10
2022-10-10T20:41:08.467Z,2.47
2022-10-10T20:43:37.564Z,3.50
2022-10-10T20:46:09.673Z,3.97
2022-10-10T20:48:37.235Z,3.57
2022-10-10T20:51:12.413Z,3.53
2022-10-10T20:53:43.826Z,3.97
2022-10-10T20:56:12.823Z,3.57
2022-10-10T20:58:40.958Z,3.30
2022-10-10T21:01:16.312Z,4.03
2022-10-10T21:03:44.570Z,4.00
2022-10-10T21:06:16.729Z,2.90
2022-10-10T21:08:43.612Z,3.33
2022-10-10T21:11:13.937Z,3.67
2022-10-10T21:13:44.653Z,4.53
2022-10-10T21:16:14.209Z,3.60
2022-10-10T21:18:44.558Z,3.40
2022-10-10T21:21:16.794Z,3.17
2022-10-10T21:23:46.363Z,2.93
2022-10-10T21:26:19.264Z,2.97
2022-10-10T21:28:46.809Z,3.30
2022-10-10T21:31:19.507Z,3.10
2022-10-10T21:33:50.105Z,2.90
2022-10-10T21:36:19.450Z,3.40
2022-10-10T21:38:46.302Z,2.80
2022-10-10T21:41:19.152Z,2.53
2022-10-10T21:43:52.241Z,3.30
2022-10-10T21:46:46.594Z,3.13
2022-10-10T21:49:13.537Z,2.77
2022-10-10T21:51:43.342Z,2.60
2022-10-10T21:54:10.704Z,3.07
2022-10-10T21:56:38.345Z,3.37
2022-10-10T21:59:05.951Z,3.47
2022-10-10T22:01:33.402Z,3.30
2022-10-10T22:04:01.144Z,3.07
2022-10-10T22:06:28.015Z,3.17
2022-10-10T22:08:57.335Z,3.00
2022-10-10T22:11:26.515Z,3.17
2022-10-10T22:13:53.663Z,2.77
2022-10-10T22:16:24.673Z,2.50
2022-10-10T22:18:56.219Z,2.50
2022-10-10T22:21:25.657Z,2.30
2022-10-10T22:23:56.087Z,2.20
2022-10-10T22:26:23.047Z,2.97
2022-10-10T22:28:50.289Z,2.40
2022-10-10T22:31:17.578Z,2.73
2022-10-10T22:33:44.544Z,2.77
2022-10-10T22:36:12.279Z,2.47
2022-10-10T22:38:41.405Z,2.50
2022-10-10T22:41:08.784Z,2.60
2022-10-10T22:43:35.686Z,2.13
2022-10-10T22:46:03.117Z,2.47
2022-10-10T22:48:30.325Z,2.63
2022-10-10T22:51:10.500Z,2.40
2022-10-10T22:53:39.530Z,2.13
2022-10-10T22:56:07.016Z,2.63
2022-10-10T22:58:34.237Z,2.77
2022-10-10T23:01:11.576Z,2.10
2022-10-10T23:03:38.496Z,2.33
2022-10-10T23:06:06.094Z,2.70
2022-10-10T23:08:33.930Z,2.10
2022-10-10T23:11:01.066Z,2.50
2022-10-10T23:13:28.481Z,2.07
2022-10-10T23:15:55.688Z,2.47
2022-10-10T23:18:27.700Z,2.50
2022-10-10T23:20:54.494Z,2.40
2022-10-10T23:23:21.319Z,2.87
2022-10-10T23:25:48.528Z,2.37
2022-10-10T23:28:16.969Z,2.40
2022-10-10T23:30:45.594Z,2.67
2022-10-10T23:33:13.484Z,2.50
2022-10-10T23:35:40.399Z,3.17
2022-10-10T23:38:07.397Z,2.87
2022-10-10T23:40:34.568Z,2.50
2022-10-10T23:43:01.740Z,2.00
2022-10-10T23:45:28.676Z,2.20
2022-10-10T23:47:55.623Z,2.43
2022-10-10T23:50:22.805Z,2.30
2022-10-10T23:52:49.622Z,2.77
2022-10-10T23:55:16.541Z,3.30
2022-10-10T23:57:43.521Z,2.23
